Time;durP1;ratioP1;P1;durP2;ratioP2;P2;SDS_P1;SDS_P2;PMS_P1;PMS_P2;Temp;Humidity;BMP_temperature;BMP_pressure;BME280_temperature;BME280_humidity;BME280_pressure;Samples;Min_cycle;Max_cycle;Signal;HPM_P1;HPM_P2
2021/07/31 00:02:07;;;;;;;;;4.00;2.75;;;;;;;;5000200;28;46852;-84
2021/07/31 00:04:32;;;;;;;;;3.25;2.50;;;;;;;;5011967;28;47068;-84
2021/07/31 00:06:57;;;;;;;;;4.25;3.00;;;;;;;;5001683;28;46910;-85
2021/07/31 00:09:23;;;;;;;;;2.50;2.50;;;;;;;;5000105;28;46919;-85
2021/07/31 00:11:48;;;;;;;;;3.00;3.00;;;;;;;;4999328;28;48475;-85
2021/07/31 00:14:13;;;;;;;;;2.75;2.00;;;;;;;;4998263;28;47717;-86
2021/07/31 00:16:39;;;;;;;;;1.50;1.50;;;;;;;;4999886;28;46985;-85
2021/07/31 00:19:04;;;;;;;;;3.00;2.25;;;;;;;;5001097;28;47368;-85
2021/07/31 00:21:31;;;;;;;;;3.00;2.00;;;;;;;;4980579;28;47108;-85
2021/07/31 00:23:56;;;;;;;;;4.00;2.00;;;;;;;;5000556;28;47630;-85
2021/07/31 00:26:21;;;;;;;;;1.75;1.75;;;;;;;;4999341;28;47044;-84
2021/07/31 00:28:46;;;;;;;;;2.00;2.00;;;;;;;;4999753;28;47063;-84
2021/07/31 00:31:12;;;;;;;;;1.75;1.75;;;;;;;;5012389;28;47092;-85
2021/07/31 00:33:37;;;;;;;;;3.00;2.00;;;;;;;;4994573;28;47107;-85
2021/07/31 00:36:03;;;;;;;;;2.25;2.25;;;;;;;;4989472;28;47036;-85
2021/07/31 00:38:28;;;;;;;;;2.50;2.50;;;;;;;;5000320;28;46878;-85
2021/07/31 00:40:53;;;;;;;;;2.50;2.25;;;;;;;;4999983;28;46824;-85
2021/07/31 00:43:19;;;;;;;;;1.50;1.50;;;;;;;;4999816;28;46878;-86
2021/07/31 00:45:44;;;;;;;;;2.00;2.00;;;;;;;;5000372;28;46882;-85
2021/07/31 00:48:10;;;;;;;;;1.25;1.25;;;;;;;;4999903;28;46862;-85
2021/07/31 00:50:35;;;;;;;;;2.25;2.00;;;;;;;;5000506;28;46811;-85
2021/07/31 00:53:01;;;;;;;;;2.50;1.50;;;;;;;;4998350;28;47085;-84
2021/07/31 00:55:27;;;;;;;;;1.00;1.00;;;;;;;;5000135;28;47047;-85
2021/07/31 00:57:53;;;;;;;;;2.00;2.00;;;;;;;;4999329;28;46976;-85
2021/07/31 01:00:18;;;;;;;;;2.00;2.00;;;;;;;;4999476;28;46917;-84
2021/07/31 01:02:44;;;;;;;;;4.00;3.00;;;;;;;;5000003;28;46952;-86
2021/07/31 01:05:10;;;;;;;;;2.00;2.00;;;;;;;;4999492;28;46998;-85
2021/07/31 01:07:35;;;;;;;;;2.25;2.00;;;;;;;;4998957;28;47118;-86
2021/07/31 01:10:01;;;;;;;;;2.00;2.00;;;;;;;;5000279;28;46970;-86
2021/07/31 01:12:27;;;;;;;;;2.00;2.00;;;;;;;;4999372;28;46949;-87
2021/07/31 01:14:52;;;;;;;;;2.00;2.00;;;;;;;;4978435;28;47263;-86
2021/07/31 01:17:17;;;;;;;;;2.00;2.00;;;;;;;;4999143;28;46914;-85
2021/07/31 01:19:43;;;;;;;;;2.00;2.00;;;;;;;;5007528;28;46835;-85
2021/07/31 01:22:08;;;;;;;;;2.00;2.00;;;;;;;;4998649;28;47020;-85
2021/07/31 01:24:33;;;;;;;;;3.75;1.00;;;;;;;;4999535;28;47109;-85
2021/07/31 01:26:59;;;;;;;;;2.50;2.50;;;;;;;;4998012;28;48982;-86
2021/07/31 01:29:24;;;;;;;;;3.00;1.50;;;;;;;;4999825;28;46775;-86
2021/07/31 01:31:50;;;;;;;;;3.00;2.25;;;;;;;;4996301;28;47828;-86
2021/07/31 01:34:15;;;;;;;;;2.25;2.00;;;;;;;;4997922;28;46913;-84
2021/07/31 01:36:40;;;;;;;;;2.00;2.00;;;;;;;;4981167;28;47049;-85
2021/07/31 01:39:06;;;;;;;;;2.50;2.50;;;;;;;;4999636;28;46948;-84
2021/07/31 01:41:31;;;;;;;;;3.50;1.75;;;;;;;;4998103;28;46826;-85
2021/07/31 01:43:57;;;;;;;;;2.75;2.00;;;;;;;;4998347;28;47079;-86
2021/07/31 01:46:23;;;;;;;;;2.00;2.00;;;;;;;;4998921;28;47053;-85
2021/07/31 01:48:49;;;;;;;;;3.50;2.00;;;;;;;;4999663;28;47043;-86
2021/07/31 01:51:15;;;;;;;;;3.00;2.00;;;;;;;;4998341;28;47027;-85
2021/07/31 01:53:40;;;;;;;;;2.75;2.00;;;;;;;;4998966;28;47015;-85
2021/07/31 01:56:05;;;;;;;;;3.00;3.00;;;;;;;;4997724;28;46903;-85
2021/07/31 01:58:31;;;;;;;;;2.00;2.00;;;;;;;;4981302;28;47403;-85
2021/07/31 02:00:57;;;;;;;;;3.00;3.00;;;;;;;;4998174;28;47070;-84
2021/07/31 02:03:22;;;;;;;;;2.00;2.00;;;;;;;;4998178;28;47035;-84
2021/07/31 02:05:48;;;;;;;;;2.75;2.00;;;;;;;;4999307;28;47174;-84
2021/07/31 02:08:13;;;;;;;;;3.00;2.00;;;;;;;;4999294;28;47339;-84
2021/07/31 02:10:38;;;;;;;;;3.00;3.00;;;;;;;;5019026;28;47124;-84
2021/07/31 02:13:04;;;;;;;;;6.50;2.25;;;;;;;;4996823;28;47162;-87
2021/07/31 02:15:29;;;;;;;;;3.50;3.50;;;;;;;;4998716;28;46929;-84
2021/07/31 02:17:55;;;;;;;;;2.00;2.00;;;;;;;;4998227;28;47020;-84
2021/07/31 02:20:21;;;;;;;;;1.50;1.00;;;;;;;;4998999;28;47786;-84
2021/07/31 02:22:46;;;;;;;;;4.50;2.00;;;;;;;;4997661;28;46895;-83
2021/07/31 02:25:11;;;;;;;;;2.50;2.50;;;;;;;;4997248;28;46897;-84
2021/07/31 02:27:37;;;;;;;;;2.00;2.00;;;;;;;;4998153;28;46827;-84
2021/07/31 02:30:03;;;;;;;;;3.00;1.50;;;;;;;;4998910;28;47228;-83
2021/07/31 02:32:28;;;;;;;;;3.50;2.25;;;;;;;;4996701;28;47410;-84
2021/07/31 02:34:53;;;;;;;;;2.50;1.00;;;;;;;;4996288;28;46901;-85
2021/07/31 02:37:18;;;;;;;;;2.25;2.25;;;;;;;;4968108;28;47137;-84
2021/07/31 02:39:44;;;;;;;;;3.00;3.00;;;;;;;;4996795;28;47575;-84
2021/07/31 02:42:09;;;;;;;;;2.50;2.00;;;;;;;;4997450;28;47123;-84
2021/07/31 02:44:35;;;;;;;;;3.00;2.00;;;;;;;;4975374;28;47166;-83
2021/07/31 02:47:00;;;;;;;;;2.00;2.00;;;;;;;;5005386;28;46870;-84
2021/07/31 02:49:25;;;;;;;;;3.00;2.00;;;;;;;;4998299;28;47042;-84
2021/07/31 02:51:52;;;;;;;;;1.50;1.50;;;;;;;;4997815;28;46930;-84
2021/07/31 02:54:17;;;;;;;;;0.75;0.00;;;;;;;;4998005;28;47087;-84
2021/07/31 02:56:42;;;;;;;;;2.75;2.25;;;;;;;;4997668;28;46784;-83
2021/07/31 02:59:08;;;;;;;;;2.25;2.25;;;;;;;;4997128;28;46989;-83
2021/07/31 03:01:34;;;;;;;;;3.50;2.00;;;;;;;;4996886;28;46923;-84
2021/07/31 03:04:01;;;;;;;;;3.00;2.00;;;;;;;;4996274;28;46870;-84
2021/07/31 03:06:26;;;;;;;;;4.00;3.00;;;;;;;;4969946;28;47266;-83
2021/07/31 03:08:51;;;;;;;;;4.25;2.00;;;;;;;;4997166;28;46899;-83
2021/07/31 03:11:17;;;;;;;;;9.75;9.75;;;;;;;;4995659;28;47058;-84
2021/07/31 03:13:42;;;;;;;;;6.25;5.50;;;;;;;;4996429;28;46842;-84
2021/07/31 03:16:08;;;;;;;;;10.00;9.50;;;;;;;;4998328;28;47225;-84
2021/07/31 03:18:33;;;;;;;;;8.75;8.25;;;;;;;;4997370;28;47539;-84
2021/07/31 03:20:58;;;;;;;;;7.00;6.50;;;;;;;;4997271;28;47060;-84
2021/07/31 03:23:24;;;;;;;;;7.00;6.00;;;;;;;;4985695;28;47018;-85
2021/07/31 03:25:49;;;;;;;;;5.00;3.50;;;;;;;;5006658;28;47031;-84
2021/07/31 03:28:15;;;;;;;;;6.25;4.50;;;;;;;;5000301;28;47770;-84
2021/07/31 03:30:44;;;;;;;;;4.75;4.75;;;;;;;;5001589;28;47032;-84
2021/07/31 03:33:09;;;;;;;;;4.00;3.00;;;;;;;;4996047;28;46830;-84
2021/07/31 03:35:35;;;;;;;;;5.00;3.00;;;;;;;;5000151;28;46945;-84
2021/07/31 03:38:00;;;;;;;;;4.25;4.25;;;;;;;;4980987;28;48627;-84
2021/07/31 03:40:26;;;;;;;;;4.50;4.00;;;;;;;;4983588;28;47011;-84
2021/07/31 03:42:51;;;;;;;;;3.00;2.25;;;;;;;;5003186;28;46980;-83
2021/07/31 03:45:16;;;;;;;;;5.50;2.00;;;;;;;;5001636;28;47218;-86
2021/07/31 03:47:42;;;;;;;;;3.75;3.00;;;;;;;;4999776;28;47191;-85
2021/07/31 03:50:07;;;;;;;;;4.50;3.75;;;;;;;;4992275;28;46809;-86
2021/07/31 03:52:33;;;;;;;;;6.00;5.00;;;;;;;;5001037;28;47239;-85
2021/07/31 03:54:58;;;;;;;;;3.50;3.50;;;;;;;;4982735;28;47028;-88
2021/07/31 03:57:23;;;;;;;;;4.50;3.00;;;;;;;;5000156;28;47640;-85
2021/07/31 03:59:49;;;;;;;;;3.25;2.00;;;;;;;;4999958;28;46910;-86
2021/07/31 04:02:14;;;;;;;;;4.75;3.25;;;;;;;;4998696;28;46838;-85
2021/07/31 04:04:39;;;;;;;;;3.00;3.00;;;;;;;;4975517;28;47093;-86
2021/07/31 04:07:05;;;;;;;;;5.00;4.00;;;;;;;;5000797;28;47912;-85
2021/07/31 04:09:30;;;;;;;;;4.00;4.00;;;;;;;;4992772;28;46913;-85
2021/07/31 04:11:55;;;;;;;;;3.00;3.00;;;;;;;;5007249;28;46961;-85
2021/07/31 04:14:20;;;;;;;;;3.00;3.00;;;;;;;;4980249;28;47080;-84
2021/07/31 04:16:46;;;;;;;;;3.50;3.00;;;;;;;;4981763;28;47238;-84
2021/07/31 04:19:12;;;;;;;;;4.25;4.00;;;;;;;;4999777;28;47004;-84
2021/07/31 04:21:37;;;;;;;;;3.50;2.50;;;;;;;;4999727;28;47019;-84
2021/07/31 04:24:02;;;;;;;;;2.75;2.75;;;;;;;;4981742;28;46967;-84
2021/07/31 04:26:28;;;;;;;;;3.75;2.75;;;;;;;;4999725;28;46875;-84
2021/07/31 04:28:53;;;;;;;;;4.00;3.00;;;;;;;;5000471;28;46803;-85
2021/07/31 04:31:18;;;;;;;;;3.00;3.00;;;;;;;;4999701;28;46897;-85
2021/07/31 04:33:44;;;;;;;;;5.00;3.00;;;;;;;;4998007;28;47016;-85
2021/07/31 04:36:09;;;;;;;;;5.25;3.00;;;;;;;;4997224;28;47263;-85
2021/07/31 04:38:35;;;;;;;;;2.00;2.00;;;;;;;;4990878;28;46928;-84
2021/07/31 04:41:00;;;;;;;;;2.25;2.25;;;;;;;;4999931;28;47076;-84
2021/07/31 04:43:26;;;;;;;;;3.00;2.75;;;;;;;;4999952;28;46888;-84
2021/07/31 04:45:51;;;;;;;;;3.00;2.00;;;;;;;;4994800;28;48159;-84
2021/07/31 04:48:16;;;;;;;;;3.25;2.25;;;;;;;;5009334;28;46936;-84
2021/07/31 04:50:42;;;;;;;;;3.50;2.50;;;;;;;;5003546;28;46893;-84
2021/07/31 04:53:07;;;;;;;;;3.25;2.25;;;;;;;;4999240;28;46787;-85
2021/07/31 04:55:32;;;;;;;;;3.00;3.00;;;;;;;;5000152;28;47998;-84
2021/07/31 04:57:58;;;;;;;;;3.00;2.00;;;;;;;;4998830;28;47269;-84
2021/07/31 05:00:23;;;;;;;;;3.75;3.00;;;;;;;;4997751;28;47038;-84
2021/07/31 05:02:48;;;;;;;;;3.75;3.00;;;;;;;;5003976;28;47005;-85
2021/07/31 05:05:14;;;;;;;;;3.00;3.00;;;;;;;;4999051;28;46835;-85
2021/07/31 05:07:39;;;;;;;;;4.00;3.00;;;;;;;;4982143;28;47118;-85
2021/07/31 05:10:05;;;;;;;;;3.75;3.00;;;;;;;;4999390;28;47020;-85
2021/07/31 05:12:30;;;;;;;;;5.00;3.00;;;;;;;;4997937;28;47164;-85
2021/07/31 05:14:55;;;;;;;;;3.00;3.00;;;;;;;;4997402;28;46897;-85
2021/07/31 05:17:21;;;;;;;;;2.75;2.75;;;;;;;;4975510;28;47284;-85
2021/07/31 05:19:49;;;;;;;;;2.75;2.75;;;;;;;;4993808;28;47091;-84
2021/07/31 05:22:15;;;;;;;;;2.00;2.00;;;;;;;;4999064;28;46787;-84
2021/07/31 05:24:40;;;;;;;;;4.75;3.00;;;;;;;;5003286;28;47696;-84
2021/07/31 05:27:06;;;;;;;;;4.25;3.50;;;;;;;;5007860;28;47013;-86
2021/07/31 05:29:31;;;;;;;;;3.75;3.00;;;;;;;;4996520;28;47655;-85
2021/07/31 05:31:57;;;;;;;;;3.25;2.25;;;;;;;;4998818;28;47130;-85
2021/07/31 05:34:22;;;;;;;;;4.50;3.00;;;;;;;;4997937;28;46910;-85
2021/07/31 05:36:48;;;;;;;;;2.50;2.25;;;;;;;;4998491;28;46767;-86
2021/07/31 05:39:13;;;;;;;;;4.00;4.00;;;;;;;;4997618;28;46933;-86
2021/07/31 05:41:39;;;;;;;;;3.25;3.25;;;;;;;;4998796;28;46986;-86
2021/07/31 05:44:04;;;;;;;;;3.00;3.00;;;;;;;;4998571;28;47621;-86
2021/07/31 05:46:30;;;;;;;;;6.00;2.00;;;;;;;;4997856;28;47628;-85
2021/07/31 05:48:55;;;;;;;;;4.25;4.00;;;;;;;;4997243;28;46913;-86
2021/07/31 05:51:20;;;;;;;;;3.25;2.75;;;;;;;;4998957;28;46897;-86
2021/07/31 05:53:46;;;;;;;;;6.25;3.25;;;;;;;;4971747;28;48409;-84
2021/07/31 05:56:11;;;;;;;;;3.00;3.00;;;;;;;;4998508;28;46977;-86
2021/07/31 05:58:37;;;;;;;;;3.00;3.00;;;;;;;;4998741;28;47109;-86
2021/07/31 06:01:06;;;;;;;;;2.75;2.75;;;;;;;;4997739;28;47027;-84
2021/07/31 06:03:32;;;;;;;;;4.50;3.50;;;;;;;;4997225;28;47069;-85
2021/07/31 06:05:57;;;;;;;;;4.75;3.00;;;;;;;;4991399;28;46933;-85
2021/07/31 06:08:23;;;;;;;;;4.25;3.25;;;;;;;;4981071;28;47115;-85
2021/07/31 06:10:48;;;;;;;;;5.00;2.75;;;;;;;;4996069;28;47220;-85
2021/07/31 06:13:13;;;;;;;;;3.75;3.00;;;;;;;;4997432;28;46954;-85
2021/07/31 06:15:41;;;;;;;;;3.25;2.00;;;;;;;;4979303;28;47128;-84
2021/07/31 06:18:06;;;;;;;;;6.50;4.00;;;;;;;;4998422;28;47304;-84
2021/07/31 06:20:32;;;;;;;;;9.25;4.00;;;;;;;;4997972;28;47091;-85
2021/07/31 06:22:58;;;;;;;;;3.75;3.25;;;;;;;;4997323;28;46913;-85
2021/07/31 06:25:23;;;;;;;;;4.75;3.50;;;;;;;;4985920;28;46920;-85
2021/07/31 06:27:52;;;;;;;;;5.00;3.00;;;;;;;;4997854;28;46999;-85
2021/07/31 06:30:18;;;;;;;;;4.25;3.75;;;;;;;;5000146;28;47136;-85
2021/07/31 06:32:43;;;;;;;;;3.50;2.50;;;;;;;;4998441;28;47518;-85
2021/07/31 06:35:08;;;;;;;;;3.50;3.25;;;;;;;;4985993;28;47103;-84
2021/07/31 06:37:34;;;;;;;;;5.50;4.00;;;;;;;;4984625;28;49020;-84
2021/07/31 06:39:59;;;;;;;;;5.75;4.00;;;;;;;;4998352;28;48216;-83
2021/07/31 06:42:24;;;;;;;;;5.75;4.50;;;;;;;;4997104;28;47812;-82
2021/07/31 06:44:51;;;;;;;;;6.00;3.50;;;;;;;;4995922;28;46893;-84
2021/07/31 06:47:16;;;;;;;;;9.00;5.75;;;;;;;;4997644;28;46930;-83
2021/07/31 06:49:41;;;;;;;;;7.00;3.00;;;;;;;;4996895;28;47244;-84
2021/07/31 06:52:07;;;;;;;;;5.00;4.25;;;;;;;;4997889;28;46950;-83
2021/07/31 06:54:32;;;;;;;;;3.50;3.00;;;;;;;;4986324;28;47081;-85
2021/07/31 06:56:57;;;;;;;;;5.75;4.00;;;;;;;;4997200;28;47004;-84
2021/07/31 06:59:22;;;;;;;;;4.25;3.00;;;;;;;;4996875;28;47040;-84
2021/07/31 07:01:48;;;;;;;;;5.00;4.75;;;;;;;;4979906;28;49805;-83
2021/07/31 07:04:13;;;;;;;;;4.00;4.00;;;;;;;;4986322;28;46791;-81
2021/07/31 07:06:41;;;;;;;;;6.00;5.00;;;;;;;;4978791;28;46985;-82
2021/07/31 07:09:07;;;;;;;;;5.75;3.00;;;;;;;;4997921;28;47090;-81
2021/07/31 07:11:32;;;;;;;;;4.25;4.25;;;;;;;;4996614;28;48163;-83
2021/07/31 07:13:57;;;;;;;;;3.00;2.50;;;;;;;;4992421;28;47226;-83
2021/07/31 07:16:23;;;;;;;;;4.00;4.00;;;;;;;;4998169;28;47082;-83
2021/07/31 07:18:48;;;;;;;;;4.00;3.50;;;;;;;;4979664;28;47365;-82
2021/07/31 07:21:14;;;;;;;;;4.75;4.00;;;;;;;;4995839;28;48612;-83
2021/07/31 07:23:39;;;;;;;;;5.00;3.50;;;;;;;;4997836;28;46889;-82
2021/07/31 07:26:11;;;;;;;;;3.25;3.25;;;;;;;;4996346;28;47500;-84
2021/07/31 07:28:37;;;;;;;;;4.75;3.75;;;;;;;;4998048;28;47005;-84
2021/07/31 07:31:03;;;;;;;;;6.00;4.75;;;;;;;;4995052;28;47029;-84
2021/07/31 07:33:28;;;;;;;;;4.50;2.75;;;;;;;;4995136;28;47171;-84
2021/07/31 07:35:53;;;;;;;;;4.00;4.00;;;;;;;;4996941;28;47132;-84
2021/07/31 07:38:19;;;;;;;;;4.25;4.25;;;;;;;;5002224;28;46923;-84
2021/07/31 07:40:44;;;;;;;;;4.25;3.00;;;;;;;;4975346;28;47068;-84
2021/07/31 07:43:11;;;;;;;;;5.25;4.50;;;;;;;;4978968;28;47132;-84
2021/07/31 07:45:36;;;;;;;;;6.25;4.25;;;;;;;;4987316;28;47080;-85
2021/07/31 07:48:01;;;;;;;;;4.00;4.00;;;;;;;;4997159;28;47121;-84
2021/07/31 07:50:28;;;;;;;;;4.50;2.25;;;;;;;;4996623;28;47083;-84
2021/07/31 07:52:53;;;;;;;;;2.75;2.75;;;;;;;;4994848;28;47261;-84
2021/07/31 07:55:19;;;;;;;;;4.25;4.00;;;;;;;;4995477;28;47145;-84
2021/07/31 07:57:44;;;;;;;;;4.75;4.25;;;;;;;;4997843;28;46884;-85
2021/07/31 08:00:09;;;;;;;;;4.25;3.50;;;;;;;;4994563;28;46918;-83
2021/07/31 08:02:35;;;;;;;;;6.00;5.00;;;;;;;;5000226;28;46884;-84
2021/07/31 08:05:00;;;;;;;;;4.00;4.00;;;;;;;;4992228;28;47095;-84
2021/07/31 08:07:26;;;;;;;;;4.75;3.50;;;;;;;;4996046;28;46980;-84
2021/07/31 08:09:51;;;;;;;;;5.00;4.00;;;;;;;;4994920;28;46890;-84
2021/07/31 08:12:16;;;;;;;;;4.00;4.00;;;;;;;;5002049;28;46943;-82
2021/07/31 08:14:42;;;;;;;;;5.75;4.50;;;;;;;;4991557;28;47196;-83
2021/07/31 08:17:07;;;;;;;;;4.00;3.50;;;;;;;;4983085;28;47206;-82
2021/07/31 08:19:32;;;;;;;;;5.00;5.00;;;;;;;;4998083;28;47826;-82
2021/07/31 08:21:57;;;;;;;;;5.75;5.25;;;;;;;;4982880;28;46969;-84
2021/07/31 08:24:23;;;;;;;;;3.25;3.25;;;;;;;;4981640;28;47192;-83
2021/07/31 08:26:49;;;;;;;;;4.25;3.50;;;;;;;;5000343;28;46863;-84
2021/07/31 08:29:14;;;;;;;;;6.00;4.00;;;;;;;;5000372;28;47048;-83
2021/07/31 08:31:42;;;;;;;;;4.00;3.00;;;;;;;;4998570;28;47059;-83
2021/07/31 08:34:08;;;;;;;;;3.50;3.00;;;;;;;;4995673;28;47206;-83
2021/07/31 08:36:34;;;;;;;;;3.50;3.50;;;;;;;;4994499;28;47258;-83
2021/07/31 08:39:00;;;;;;;;;4.50;3.75;;;;;;;;5000257;28;47342;-83
2021/07/31 08:41:26;;;;;;;;;5.25;4.75;;;;;;;;4998683;28;46989;-83
2021/07/31 08:43:52;;;;;;;;;6.00;5.00;;;;;;;;4999617;28;47057;-84
2021/07/31 08:46:17;;;;;;;;;7.75;4.50;;;;;;;;4999730;28;46841;-83
2021/07/31 08:48:42;;;;;;;;;5.00;3.25;;;;;;;;5000449;28;47644;-83
2021/07/31 08:51:08;;;;;;;;;4.00;4.00;;;;;;;;4998581;28;46896;-83
2021/07/31 08:53:34;;;;;;;;;5.00;3.50;;;;;;;;4998235;28;47200;-84
2021/07/31 08:56:00;;;;;;;;;5.00;4.00;;;;;;;;4980363;28;48135;-85
2021/07/31 08:58:25;;;;;;;;;4.25;3.00;;;;;;;;4999221;28;46969;-81
2021/07/31 09:00:51;;;;;;;;;5.25;2.25;;;;;;;;5000516;28;46841;-87
2021/07/31 09:03:17;;;;;;;;;2.75;2.75;;;;;;;;5003983;28;46973;-83
2021/07/31 09:05:42;;;;;;;;;2.25;2.25;;;;;;;;4998658;28;47006;-83
2021/07/31 09:08:08;;;;;;;;;3.00;2.25;;;;;;;;4999990;28;47165;-83
2021/07/31 09:10:40;;;;;;;;;2.75;2.75;;;;;;;;4998341;28;48660;-83
2021/07/31 09:13:07;;;;;;;;;4.00;3.50;;;;;;;;5000064;28;47080;-82
2021/07/31 09:15:42;;;;;;;;;5.00;4.50;;;;;;;;4998400;28;47190;-83
2021/07/31 09:18:20;;;;;;;;;3.50;3.50;;;;;;;;4982249;28;48190;-83
2021/07/31 09:21:05;;;;;;;;;3.00;2.50;;;;;;;;4969424;28;47000;-83
2021/07/31 09:23:46;;;;;;;;;3.50;3.50;;;;;;;;4995536;28;47171;-83
2021/07/31 09:26:13;;;;;;;;;5.50;3.25;;;;;;;;4999371;28;47020;-83
2021/07/31 09:28:43;;;;;;;;;3.00;3.00;;;;;;;;4981621;28;49372;-83
2021/07/31 09:31:09;;;;;;;;;4.25;3.75;;;;;;;;4996675;28;47085;-85
2021/07/31 09:33:34;;;;;;;;;3.50;3.50;;;;;;;;4998196;28;46904;-83
2021/07/31 09:36:01;;;;;;;;;3.25;3.25;;;;;;;;4998781;28;47126;-83
2021/07/31 09:38:36;;;;;;;;;4.25;4.00;;;;;;;;4981695;28;49292;-83
2021/07/31 09:41:20;;;;;;;;;5.50;4.00;;;;;;;;4998809;28;47395;-83
2021/07/31 09:44:02;;;;;;;;;6.25;3.00;;;;;;;;5011627;28;46969;-83
2021/07/31 09:46:41;;;;;;;;;5.50;2.75;;;;;;;;4991121;28;47217;-83
2021/07/31 09:49:08;;;;;;;;;3.00;3.00;;;;;;;;4998746;28;47059;-83
2021/07/31 09:51:44;;;;;;;;;3.00;3.00;;;;;;;;4997295;28;47021;-83
2021/07/31 09:54:10;;;;;;;;;3.50;3.50;;;;;;;;4999205;28;46839;-83
2021/07/31 09:56:56;;;;;;;;;5.50;4.00;;;;;;;;4999006;28;47213;-83
2021/07/31 09:59:22;;;;;;;;;5.00;3.00;;;;;;;;4998729;28;48079;-83
2021/07/31 10:01:49;;;;;;;;;5.50;2.75;;;;;;;;4997706;28;47109;-83
2021/07/31 10:04:15;;;;;;;;;3.25;3.00;;;;;;;;4998563;28;47036;-83
2021/07/31 10:06:41;;;;;;;;;3.25;3.00;;;;;;;;4998774;28;46966;-83
2021/07/31 10:09:07;;;;;;;;;4.00;2.00;;;;;;;;5006871;28;47007;-83
2021/07/31 10:11:33;;;;;;;;;4.00;3.00;;;;;;;;4976671;28;47857;-83
2021/07/31 10:13:59;;;;;;;;;3.00;2.50;;;;;;;;4998447;28;47008;-83
2021/07/31 10:16:25;;;;;;;;;2.50;2.50;;;;;;;;4997829;28;46970;-83
2021/07/31 10:18:54;;;;;;;;;4.25;3.00;;;;;;;;4997466;28;47051;-83
2021/07/31 10:21:19;;;;;;;;;4.00;3.50;;;;;;;;4997992;28;46960;-83
2021/07/31 10:24:00;;;;;;;;;3.00;3.00;;;;;;;;4999042;28;46967;-83
2021/07/31 10:26:27;;;;;;;;;3.25;3.25;;;;;;;;4997530;28;47109;-83
2021/07/31 10:28:52;;;;;;;;;2.25;2.25;;;;;;;;4997856;28;48060;-83
2021/07/31 10:31:28;;;;;;;;;5.25;2.25;;;;;;;;4997908;28;47968;-82
2021/07/31 10:33:54;;;;;;;;;2.00;1.00;;;;;;;;4998259;28;47057;-83
2021/07/31 10:36:30;;;;;;;;;2.00;2.00;;;;;;;;4993527;28;46993;-83
2021/07/31 10:38:56;;;;;;;;;3.00;3.00;;;;;;;;4992013;28;48064;-83
2021/07/31 10:41:40;;;;;;;;;3.50;2.50;;;;;;;;4997960;28;47004;-83
2021/07/31 10:44:09;;;;;;;;;3.00;3.00;;;;;;;;4998681;28;46970;-83
2021/07/31 10:46:34;;;;;;;;;4.00;4.00;;;;;;;;4998330;28;46768;-83
2021/07/31 10:49:19;;;;;;;;;4.75;2.75;;;;;;;;4993027;28;47137;-83
2021/07/31 10:51:45;;;;;;;;;3.25;3.25;;;;;;;;4995727;28;47060;-83
2021/07/31 10:54:10;;;;;;;;;3.00;3.00;;;;;;;;4998343;28;47031;-84
2021/07/31 10:56:54;;;;;;;;;3.00;3.00;;;;;;;;5001828;28;47120;-84
2021/07/31 10:59:20;;;;;;;;;4.75;4.00;;;;;;;;4980420;28;49334;-84
2021/07/31 11:01:45;;;;;;;;;3.00;3.00;;;;;;;;4997868;28;47052;-85
2021/07/31 11:04:31;;;;;;;;;2.50;2.50;;;;;;;;4998775;28;46937;-85
2021/07/31 11:07:09;;;;;;;;;4.00;3.25;;;;;;;;4997953;28;46873;-87
2021/07/31 11:09:35;;;;;;;;;5.50;5.25;;;;;;;;4997305;28;47111;-86
2021/07/31 11:12:20;;;;;;;;;3.50;2.25;;;;;;;;4997382;28;47097;-87
2021/07/31 11:15:04;;;;;;;;;4.00;3.25;;;;;;;;4998164;28;47125;-87
2021/07/31 11:17:30;;;;;;;;;4.50;3.50;;;;;;;;4990281;28;47141;-86
2021/07/31 11:19:55;;;;;;;;;4.00;3.25;;;;;;;;4994614;28;46821;-87
2021/07/31 11:22:21;;;;;;;;;4.25;4.00;;;;;;;;4997409;28;47034;-86
2021/07/31 11:24:46;;;;;;;;;4.00;3.25;;;;;;;;4998415;28;46969;-87
2021/07/31 11:27:11;;;;;;;;;4.00;4.00;;;;;;;;4997320;28;47832;-87
2021/07/31 11:29:37;;;;;;;;;4.00;4.00;;;;;;;;4980415;28;48289;-85
2021/07/31 11:32:11;;;;;;;;;3.25;2.50;;;;;;;;4996230;28;47047;-85
2021/07/31 11:34:37;;;;;;;;;4.00;3.00;;;;;;;;4997275;28;46968;-86
2021/07/31 11:37:03;;;;;;;;;3.25;3.00;;;;;;;;4980125;28;47295;-86
2021/07/31 11:39:28;;;;;;;;;3.75;2.00;;;;;;;;4999263;28;48151;-85
2021/07/31 11:41:57;;;;;;;;;3.00;3.00;;;;;;;;4984299;28;46835;-87
2021/07/31 11:44:33;;;;;;;;;4.25;4.00;;;;;;;;4978858;28;47123;-87
2021/07/31 11:46:59;;;;;;;;;2.00;2.00;;;;;;;;4998759;28;47012;-87
2021/07/31 11:49:26;;;;;;;;;4.00;2.00;;;;;;;;4998917;28;47089;-88
2021/07/31 11:51:53;;;;;;;;;2.00;1.75;;;;;;;;4992444;28;47054;-86
2021/07/31 11:54:19;;;;;;;;;3.00;1.00;;;;;;;;4999062;28;47034;-88
2021/07/31 11:56:45;;;;;;;;;1.00;1.00;;;;;;;;4999663;28;47163;-88
2021/07/31 11:59:12;;;;;;;;;2.00;2.00;;;;;;;;4970942;28;47042;-87
2021/07/31 12:01:38;;;;;;;;;3.00;1.75;;;;;;;;4999619;28;47714;-86
2021/07/31 12:04:04;;;;;;;;;3.00;1.00;;;;;;;;4998496;28;47171;-86
2021/07/31 12:06:39;;;;;;;;;4.75;2.00;;;;;;;;4981891;28;47022;-86
2021/07/31 12:09:19;;;;;;;;;2.25;2.25;;;;;;;;4983234;28;49196;-87
2021/07/31 12:11:45;;;;;;;;;3.50;3.00;;;;;;;;4981321;28;47084;-86
2021/07/31 12:14:28;;;;;;;;;2.00;2.00;;;;;;;;4998769;28;47086;-87
2021/07/31 12:17:08;;;;;;;;;3.50;1.25;;;;;;;;4996713;28;47360;-87
2021/07/31 12:19:37;;;;;;;;;3.00;1.75;;;;;;;;4999807;28;47055;-87
2021/07/31 12:22:11;;;;;;;;;1.75;1.75;;;;;;;;5002777;28;47104;-86
2021/07/31 12:24:37;;;;;;;;;2.25;2.25;;;;;;;;5007629;28;47066;-87
2021/07/31 12:27:03;;;;;;;;;1.00;1.00;;;;;;;;4998469;28;47274;-86
2021/07/31 12:29:38;;;;;;;;;2.75;2.75;;;;;;;;4997682;28;47080;-86
2021/07/31 12:32:20;;;;;;;;;4.50;2.00;;;;;;;;4992591;28;47014;-85
2021/07/31 12:34:46;;;;;;;;;2.00;2.00;;;;;;;;4981015;28;47110;-85
2021/07/31 12:37:11;;;;;;;;;1.00;1.00;;;;;;;;4990142;28;47095;-86
2021/07/31 12:39:36;;;;;;;;;2.50;2.00;;;;;;;;5000905;28;47755;-86
2021/07/31 12:42:03;;;;;;;;;3.00;1.75;;;;;;;;4999529;28;47143;-86
2021/07/31 12:44:30;;;;;;;;;2.75;2.00;;;;;;;;4983061;28;46785;-85
2021/07/31 12:46:56;;;;;;;;;2.00;2.00;;;;;;;;4999578;28;47267;-88
2021/07/31 12:49:21;;;;;;;;;4.00;2.00;;;;;;;;4996900;28;46878;-85
2021/07/31 12:51:46;;;;;;;;;3.75;3.00;;;;;;;;4999552;28;46884;-85
2021/07/31 12:54:12;;;;;;;;;2.00;2.00;;;;;;;;5000241;28;47012;-88
2021/07/31 12:56:37;;;;;;;;;1.00;1.00;;;;;;;;4999306;28;46984;-86
2021/07/31 12:59:03;;;;;;;;;2.25;2.00;;;;;;;;4999469;28;47921;-86
2021/07/31 13:01:29;;;;;;;;;1.50;1.00;;;;;;;;5000568;28;46907;-87
2021/07/31 13:03:54;;;;;;;;;2.50;2.00;;;;;;;;5000465;28;47152;-86
2021/07/31 13:06:19;;;;;;;;;1.50;1.50;;;;;;;;4999434;28;47071;-86
2021/07/31 13:08:45;;;;;;;;;2.00;2.00;;;;;;;;4979911;28;48369;-83
2021/07/31 13:11:10;;;;;;;;;2.00;2.00;;;;;;;;4991411;28;47037;-87
2021/07/31 13:13:36;;;;;;;;;2.00;2.00;;;;;;;;4981856;28;47122;-86
2021/07/31 13:16:01;;;;;;;;;2.00;2.00;;;;;;;;5000559;28;47102;-87
2021/07/31 13:18:26;;;;;;;;;3.00;3.00;;;;;;;;5000208;28;47801;-87
2021/07/31 13:20:51;;;;;;;;;3.25;2.25;;;;;;;;4998511;28;47024;-85
2021/07/31 13:23:17;;;;;;;;;2.75;2.75;;;;;;;;4997886;28;47143;-85
2021/07/31 13:25:42;;;;;;;;;1.50;1.25;;;;;;;;4997813;28;47164;-85
2021/07/31 13:28:08;;;;;;;;;2.00;2.00;;;;;;;;4999160;28;47019;-83
2021/07/31 13:30:34;;;;;;;;;3.25;1.75;;;;;;;;4998871;28;46866;-87
2021/07/31 13:32:59;;;;;;;;;4.25;2.00;;;;;;;;4999488;28;46988;-85
2021/07/31 13:35:25;;;;;;;;;3.00;3.00;;;;;;;;5006649;28;46976;-85
2021/07/31 13:37:50;;;;;;;;;2.00;2.00;;;;;;;;4999573;28;47904;-85
2021/07/31 13:40:17;;;;;;;;;4.25;2.25;;;;;;;;4993838;28;47662;-84
2021/07/31 13:42:43;;;;;;;;;1.50;1.50;;;;;;;;4973337;28;46911;-85
2021/07/31 13:45:08;;;;;;;;;2.00;2.00;;;;;;;;5000207;28;47029;-87
2021/07/31 13:47:36;;;;;;;;;2.50;2.00;;;;;;;;4996370;28;47036;-86
2021/07/31 13:50:01;;;;;;;;;2.00;2.00;;;;;;;;4999435;28;47022;-86
2021/07/31 13:52:27;;;;;;;;;2.00;1.00;;;;;;;;4982170;28;47000;-87
2021/07/31 13:54:52;;;;;;;;;1.00;1.00;;;;;;;;4999967;28;47152;-86
2021/07/31 13:57:17;;;;;;;;;2.00;2.00;;;;;;;;4998945;28;48093;-84
2021/07/31 13:59:43;;;;;;;;;1.25;1.25;;;;;;;;4986758;28;47474;-89
2021/07/31 14:02:10;;;;;;;;;2.00;2.00;;;;;;;;4999748;28;46859;-89
2021/07/31 14:04:35;;;;;;;;;2.00;2.00;;;;;;;;4999594;28;47303;-90
2021/07/31 14:07:01;;;;;;;;;2.00;2.00;;;;;;;;4999382;28;47678;-88
2021/07/31 14:09:26;;;;;;;;;3.00;3.00;;;;;;;;4980716;28;46986;-87
2021/07/31 14:11:51;;;;;;;;;1.50;1.50;;;;;;;;4999735;28;46927;-88
2021/07/31 14:14:16;;;;;;;;;2.00;2.00;;;;;;;;4981523;28;48233;-89
2021/07/31 14:16:42;;;;;;;;;2.00;2.00;;;;;;;;4999571;28;47963;-89
2021/07/31 14:19:08;;;;;;;;;4.00;2.00;;;;;;;;4999275;28;47187;-89
2021/07/31 14:21:33;;;;;;;;;1.00;1.00;;;;;;;;4998802;28;47087;-89
2021/07/31 14:23:58;;;;;;;;;1.25;1.25;;;;;;;;5012220;28;46932;-90
2021/07/31 14:26:24;;;;;;;;;2.00;2.00;;;;;;;;4981433;28;48459;-89
2021/07/31 14:28:49;;;;;;;;;2.25;2.25;;;;;;;;4999098;28;46933;-90
2021/07/31 14:31:15;;;;;;;;;3.25;2.00;;;;;;;;5006085;28;47113;-89
2021/07/31 14:33:41;;;;;;;;;1.50;1.25;;;;;;;;5009722;28;47165;-89
2021/07/31 14:36:07;;;;;;;;;1.50;1.50;;;;;;;;4998925;28;47909;-91
2021/07/31 14:38:32;;;;;;;;;1.00;1.00;;;;;;;;4998664;28;46968;-89
2021/07/31 14:40:58;;;;;;;;;1.00;1.00;;;;;;;;4999261;28;47057;-90